Terminal Aerodrome Forecast
Issued by NWS

Home | Current Version | Previous Version | Text Only | Print | Product List | Glossary On
Versions: 1 2 3 4 5 6 7 8 9 10 11 12 13 14 15
593
FTUS43 KGRR 211130
TAFMKG
TAF
KMKG 211130Z 2112/2212 13004KT P6SM BKN250
     FM211600 22008KT P6SM FEW040 BKN200
     FM220700 22012KT 3SM -SHRA BR VCTS OVC020CB=

USA.gov is the U.S. government's official web portal to all federal, state and local government web resources and services.